Cacak, Serbia
Current Conditions -  °F | °C
As of 7:00 PM on Sunday 23 Nov 2014 (Local Time) from LYKV Reporting Station
Clear Clear  
Wind Chill:   Ceiling: Unl
Heat Index:   Visibility: 6mi
Dew Point:   Wind: 1mph
Humidity: 87%   Direction: NA
Pressure: 30.39"   Gusts: NA
Location:  43.9°N, 20.33°E
Report Text: LYKV 231700Z VRB01KT CAVOK 04/02 Q1029 NOSIG
Loading
Personal Weather Stations






























Interactive Weather Map New forecast layout! Learn more

10-Day Weather Forecast

Advertisements
Track Severe Weather on mobile